VTK531 UHPP-UHWW
Flight info
| Callsign | VTK531 |
|---|---|
| Flight time | 3h 7m |
| Altitude | 36000 |
| Route | SAMIK4M SAMIK T577 UB P176 NAMUL P175 DITOR/K0889F380 P175 AKOLA T575 TD B355 BG/K0700F220 G714 DAGES DAGES2S |
| Aircraft | B77W/H-SDE1E2E3FGHIJ2J3J4J5M1RWXY/LB1D1 |
Departure
| Time | 2026-03-27 20:16 |
|---|---|
| Airport | Yelizovo Airport (UHPP) |
Arrival
| Time | 2026-03-27 23:23 |
|---|---|
| Airport | Vladivostok International Airport (UHWW) |
| Time | Latitude | Longitude | Altitude | Speed | Heading |
|---|---|---|---|---|---|
| 2026-03-27 19:58 | 53.18262 | 158.43386 | 128 ft | 0 kts | 219° |
| 2026-03-27 20:08 | 53.18280 | 158.43411 | 122 ft | 4 kts | 219° |
| 2026-03-27 20:08 | 53.18300 | 158.43438 | 122 ft | 2 kts | 210° |
| 2026-03-27 20:09 | 53.18314 | 158.43447 | 124 ft | 2 kts | 178° |
| 2026-03-27 20:09 | 53.18329 | 158.43442 | 124 ft | 3 kts | 151° |
| 2026-03-27 20:09 | 53.18343 | 158.43425 | 122 ft | 2 kts | 127° |
| 2026-03-27 20:10 | 53.18350 | 158.43406 | 122 ft | 0 kts | 115° |
| 2026-03-27 20:10 | 53.18349 | 158.43409 | 122 ft | 0 kts | 115° |
| 2026-03-27 20:13 | 53.18349 | 158.43411 | 122 ft | 1 kts | 115° |
| 2026-03-27 20:13 | 53.18326 | 158.43466 | 122 ft | 8 kts | 131° |
| 2026-03-27 20:13 | 53.18285 | 158.43527 | 122 ft | 8 kts | 142° |
| 2026-03-27 20:13 | 53.18244 | 158.43586 | 124 ft | 8 kts | 119° |
| 2026-03-27 20:14 | 53.18249 | 158.43678 | 123 ft | 8 kts | 75° |
| 2026-03-27 20:14 | 53.18268 | 158.43767 | 123 ft | 8 kts | 69° |
| 2026-03-27 20:14 | 53.18289 | 158.43855 | 123 ft | 8 kts | 68° |
| 2026-03-27 20:14 | 53.18311 | 158.43943 | 125 ft | 8 kts | 67° |
| 2026-03-27 20:15 | 53.18331 | 158.44032 | 125 ft | 8 kts | 76° |
| 2026-03-27 20:15 | 53.18305 | 158.44110 | 123 ft | 8 kts | 149° |
| 2026-03-27 20:15 | 53.18252 | 158.44150 | 132 ft | 9 kts | 157° |
| 2026-03-27 20:15 | 53.18071 | 158.44279 | 126 ft | 60 kts | 157° |
| 2026-03-27 20:16 | 53.17436 | 158.44722 | 128 ft | 135 kts | 157° |
| 2026-03-27 20:16 | 53.16373 | 158.45476 | 180 ft | 188 kts | 156° |
| 2026-03-27 20:16 | 53.15164 | 158.46335 | 885 ft | 188 kts | 156° |
| 2026-03-27 20:16 | 53.13960 | 158.47173 | 1677 ft | 191 kts | 156° |
| 2026-03-27 20:17 | 53.12717 | 158.48045 | 2357 ft | 201 kts | 157° |
| 2026-03-27 20:17 | 53.11390 | 158.48940 | 2894 ft | 213 kts | 158° |
| 2026-03-27 20:17 | 53.09921 | 158.49939 | 3168 ft | 241 kts | 158° |
| 2026-03-27 20:17 | 53.08331 | 158.51025 | 3799 ft | 252 kts | 158° |
| 2026-03-27 20:18 | 53.06691 | 158.52158 | 4645 ft | 257 kts | 158° |
| 2026-03-27 20:18 | 53.05025 | 158.53304 | 5522 ft | 261 kts | 158° |
| 2026-03-27 20:18 | 53.03322 | 158.54472 | 6353 ft | 267 kts | 158° |
| 2026-03-27 20:18 | 53.01583 | 158.55661 | 7095 ft | 274 kts | 158° |
| 2026-03-27 20:19 | 52.99792 | 158.56765 | 7812 ft | 277 kts | 168° |
| 2026-03-27 20:19 | 52.97859 | 158.56629 | 8457 ft | 283 kts | 200° |
| 2026-03-27 20:19 | 52.96207 | 158.54958 | 9220 ft | 285 kts | 227° |
| 2026-03-27 20:19 | 52.95156 | 158.52199 | 9965 ft | 286 kts | 255° |
| 2026-03-27 20:20 | 52.94896 | 158.48917 | 10477 ft | 294 kts | 276° |
| 2026-03-27 20:20 | 52.95179 | 158.45420 | 10684 ft | 319 kts | 282° |
| 2026-03-27 20:20 | 52.95592 | 158.41651 | 10903 ft | 345 kts | 283° |
| 2026-03-27 20:20 | 52.96051 | 158.37636 | 11445 ft | 360 kts | 283° |
| 2026-03-27 20:21 | 52.96519 | 158.33491 | 12292 ft | 369 kts | 283° |
| 2026-03-27 20:21 | 52.96981 | 158.29275 | 13336 ft | 373 kts | 283° |
| 2026-03-27 20:21 | 52.97437 | 158.25014 | 14316 ft | 378 kts | 283° |
| 2026-03-27 20:21 | 52.97893 | 158.20675 | 15217 ft | 383 kts | 283° |
| 2026-03-27 20:22 | 52.98348 | 158.16288 | 16121 ft | 389 kts | 283° |
| 2026-03-27 20:22 | 52.98806 | 158.11832 | 17011 ft | 395 kts | 282° |
| 2026-03-27 20:22 | 52.99262 | 158.07356 | 17885 ft | 400 kts | 282° |
| 2026-03-27 20:22 | 52.99728 | 158.02767 | 18697 ft | 406 kts | 282° |
| 2026-03-27 20:23 | 53.00198 | 157.98109 | 19472 ft | 411 kts | 282° |
| 2026-03-27 20:23 | 53.00671 | 157.93404 | 20244 ft | 415 kts | 282° |
| 2026-03-27 20:23 | 53.01148 | 157.88650 | 21003 ft | 420 kts | 282° |
| 2026-03-27 20:23 | 53.01630 | 157.83822 | 21747 ft | 425 kts | 282° |
| 2026-03-27 20:24 | 53.02115 | 157.78952 | 22481 ft | 430 kts | 282° |
| 2026-03-27 20:24 | 53.02603 | 157.74027 | 23203 ft | 434 kts | 282° |
| 2026-03-27 20:24 | 53.03094 | 157.69051 | 23849 ft | 439 kts | 282° |
| 2026-03-27 20:24 | 53.03585 | 157.64023 | 24455 ft | 441 kts | 281° |
| 2026-03-27 20:25 | 53.03720 | 157.58890 | 24941 ft | 451 kts | 265° |
| 2026-03-27 20:25 | 53.03302 | 157.55501 | 25268 ft | 454 kts | 257° |
| 2026-03-27 20:25 | 53.02427 | 157.50427 | 25777 ft | 459 kts | 255° |
| 2026-03-27 20:25 | 53.01225 | 157.43597 | 26555 ft | 462 kts | 255° |
| 2026-03-27 20:26 | 53.00636 | 157.40195 | 26953 ft | 464 kts | 256° |
| 2026-03-27 20:26 | 52.99758 | 157.35026 | 27531 ft | 467 kts | 256° |
| 2026-03-27 20:26 | 52.98612 | 157.28127 | 28241 ft | 471 kts | 256° |
| 2026-03-27 20:26 | 52.97748 | 157.22866 | 28728 ft | 474 kts | 256° |
| 2026-03-27 20:27 | 52.97163 | 157.19291 | 29047 ft | 476 kts | 256° |
| 2026-03-27 20:27 | 52.96294 | 157.13976 | 29498 ft | 479 kts | 256° |
| 2026-03-27 20:27 | 52.95417 | 157.08634 | 29962 ft | 481 kts | 256° |
| 2026-03-27 20:27 | 52.94537 | 157.03297 | 30495 ft | 479 kts | 255° |
| 2026-03-27 20:28 | 52.93371 | 156.96263 | 31250 ft | 475 kts | 255° |
| 2026-03-27 20:28 | 52.92791 | 156.92777 | 31618 ft | 473 kts | 255° |
| 2026-03-27 20:28 | 52.91916 | 156.87525 | 32143 ft | 472 kts | 255° |
| 2026-03-27 20:28 | 52.91041 | 156.82295 | 32646 ft | 470 kts | 255° |
| 2026-03-27 20:29 | 52.90166 | 156.77081 | 33139 ft | 469 kts | 255° |
| 2026-03-27 20:29 | 52.89292 | 156.71883 | 33650 ft | 467 kts | 255° |
| 2026-03-27 20:29 | 52.88421 | 156.66720 | 34110 ft | 465 kts | 255° |
| 2026-03-27 20:29 | 52.87546 | 156.61549 | 34451 ft | 465 kts | 255° |
| 2026-03-27 20:30 | 52.86670 | 156.56390 | 34754 ft | 466 kts | 255° |
| 2026-03-27 20:30 | 52.85792 | 156.51229 | 35056 ft | 466 kts | 254° |
| 2026-03-27 20:30 | 52.84910 | 156.46063 | 35380 ft | 466 kts | 254° |
| 2026-03-27 20:30 | 52.84027 | 156.40901 | 35691 ft | 466 kts | 254° |
| 2026-03-27 20:31 | 52.83142 | 156.35740 | 35906 ft | 469 kts | 254° |
| 2026-03-27 20:31 | 52.82245 | 156.30532 | 35939 ft | 472 kts | 254° |
| 2026-03-27 20:31 | 52.80887 | 156.20037 | 35964 ft | 467 kts | 261° |
| 2026-03-27 20:32 | 52.79940 | 156.09456 | 35964 ft | 464 kts | 261° |
| 2026-03-27 20:32 | 52.78969 | 155.98936 | 35965 ft | 463 kts | 261° |
| 2026-03-27 20:33 | 52.77963 | 155.88439 | 35963 ft | 463 kts | 261° |
| 2026-03-27 20:33 | 52.76944 | 155.77929 | 35963 ft | 464 kts | 261° |
| 2026-03-27 20:34 | 52.75894 | 155.67388 | 35965 ft | 465 kts | 261° |
| 2026-03-27 20:34 | 52.74832 | 155.56912 | 35965 ft | 466 kts | 260° |
| 2026-03-27 20:35 | 52.73755 | 155.46359 | 35963 ft | 466 kts | 260° |
| 2026-03-27 20:35 | 52.72669 | 155.35796 | 35964 ft | 467 kts | 260° |
| 2026-03-27 20:36 | 52.71575 | 155.25235 | 35966 ft | 467 kts | 260° |
| 2026-03-27 20:36 | 52.70469 | 155.14667 | 35964 ft | 467 kts | 260° |
| 2026-03-27 20:37 | 52.69354 | 155.04099 | 35962 ft | 467 kts | 260° |
| 2026-03-27 20:37 | 52.68232 | 154.93559 | 35964 ft | 467 kts | 260° |
| 2026-03-27 20:38 | 52.67107 | 154.83084 | 35965 ft | 467 kts | 259° |
| 2026-03-27 20:38 | 52.65966 | 154.72551 | 35970 ft | 467 kts | 259° |
| 2026-03-27 20:39 | 52.64818 | 154.62036 | 35973 ft | 467 kts | 259° |
| 2026-03-27 20:39 | 52.63277 | 154.51664 | 35978 ft | 466 kts | 251° |
| 2026-03-27 20:40 | 52.60667 | 154.41904 | 35984 ft | 465 kts | 244° |
| 2026-03-27 20:40 | 52.57783 | 154.32366 | 35983 ft | 466 kts | 243° |
| 2026-03-27 20:41 | 52.54907 | 154.22840 | 35982 ft | 465 kts | 244° |
| 2026-03-27 20:41 | 52.52037 | 154.13285 | 35992 ft | 469 kts | 244° |
| 2026-03-27 20:42 | 52.49136 | 154.03622 | 35991 ft | 472 kts | 244° |
| 2026-03-27 20:42 | 52.46256 | 153.94063 | 35991 ft | 471 kts | 243° |
| 2026-03-27 20:43 | 52.43333 | 153.84402 | 35994 ft | 473 kts | 243° |
| 2026-03-27 20:43 | 52.40408 | 153.74774 | 35998 ft | 471 kts | 243° |
| 2026-03-27 20:44 | 52.37472 | 153.65149 | 36001 ft | 473 kts | 243° |
| 2026-03-27 20:44 | 52.34534 | 153.55558 | 36002 ft | 471 kts | 243° |
| 2026-03-27 20:45 | 52.31578 | 153.45945 | 36005 ft | 471 kts | 243° |
| 2026-03-27 20:45 | 52.28625 | 153.36382 | 36016 ft | 474 kts | 243° |
| 2026-03-27 20:46 | 52.25646 | 153.26772 | 36011 ft | 471 kts | 243° |
| 2026-03-27 20:46 | 52.22713 | 153.17347 | 36007 ft | 462 kts | 243° |
| 2026-03-27 20:47 | 52.19822 | 153.08092 | 36022 ft | 461 kts | 242° |
| 2026-03-27 20:47 | 52.16923 | 152.98845 | 36014 ft | 455 kts | 242° |
| 2026-03-27 20:48 | 52.14025 | 152.89642 | 36028 ft | 457 kts | 242° |
| 2026-03-27 20:48 | 52.11124 | 152.80458 | 36032 ft | 457 kts | 242° |
| 2026-03-27 20:49 | 52.08196 | 152.71225 | 36043 ft | 460 kts | 242° |
| 2026-03-27 20:49 | 52.05274 | 152.62047 | 36033 ft | 455 kts | 242° |
| 2026-03-27 20:50 | 52.02342 | 152.52871 | 36038 ft | 458 kts | 242° |
| 2026-03-27 20:50 | 51.99412 | 152.43737 | 36045 ft | 457 kts | 242° |
| 2026-03-27 20:51 | 51.96474 | 152.34611 | 36044 ft | 460 kts | 242° |
| 2026-03-27 20:51 | 51.93515 | 152.25452 | 36034 ft | 454 kts | 242° |
| 2026-03-27 20:52 | 51.90570 | 152.16374 | 36063 ft | 459 kts | 242° |
| 2026-03-27 20:52 | 51.87571 | 152.07161 | 36064 ft | 464 kts | 242° |
| 2026-03-27 20:53 | 51.84549 | 151.97912 | 36060 ft | 465 kts | 241° |
| 2026-03-27 20:53 | 51.81523 | 151.88686 | 36063 ft | 468 kts | 241° |
| 2026-03-27 20:54 | 51.78449 | 151.79350 | 36064 ft | 473 kts | 241° |
| 2026-03-27 20:54 | 51.75357 | 151.69992 | 36054 ft | 469 kts | 241° |
| 2026-03-27 20:55 | 51.72283 | 151.60720 | 36071 ft | 470 kts | 241° |
| 2026-03-27 20:55 | 51.69178 | 151.51397 | 36073 ft | 472 kts | 241° |
| 2026-03-27 20:56 | 51.66071 | 151.42095 | 36076 ft | 472 kts | 241° |
| 2026-03-27 20:56 | 51.62946 | 151.32781 | 36077 ft | 472 kts | 241° |
| 2026-03-27 20:57 | 51.59812 | 151.23473 | 36076 ft | 471 kts | 241° |
| 2026-03-27 20:57 | 51.56702 | 151.14270 | 36087 ft | 472 kts | 241° |
| 2026-03-27 20:58 | 51.53556 | 151.04995 | 36088 ft | 471 kts | 240° |
| 2026-03-27 20:59 | 51.48822 | 150.91101 | 36087 ft | 473 kts | 240° |
| 2026-03-27 20:59 | 51.45660 | 150.81863 | 36085 ft | 470 kts | 240° |
| 2026-03-27 21:00 | 51.42540 | 150.72782 | 36085 ft | 465 kts | 240° |
| 2026-03-27 21:00 | 51.39431 | 150.63765 | 36087 ft | 461 kts | 240° |
| 2026-03-27 21:01 | 51.36338 | 150.54827 | 36086 ft | 456 kts | 240° |
| 2026-03-27 21:01 | 51.33239 | 150.45903 | 36106 ft | 460 kts | 240° |
| 2026-03-27 21:02 | 51.30117 | 150.36944 | 36102 ft | 459 kts | 240° |
| 2026-03-27 21:02 | 51.27022 | 150.28093 | 36104 ft | 460 kts | 240° |
| 2026-03-27 21:03 | 51.23877 | 150.19133 | 36118 ft | 465 kts | 240° |
| 2026-03-27 21:03 | 51.20697 | 150.10094 | 36113 ft | 469 kts | 239° |
| 2026-03-27 21:04 | 51.17557 | 150.00963 | 36109 ft | 470 kts | 243° |
| 2026-03-27 21:04 | 51.15231 | 149.91213 | 36119 ft | 471 kts | 251° |
| 2026-03-27 21:05 | 51.13200 | 149.81288 | 36115 ft | 471 kts | 251° |
| 2026-03-27 21:05 | 51.11153 | 149.71396 | 36109 ft | 470 kts | 250° |
| 2026-03-27 21:06 | 51.09082 | 149.61555 | 36113 ft | 468 kts | 250° |
| 2026-03-27 21:06 | 51.06997 | 149.51738 | 36118 ft | 467 kts | 250° |
| 2026-03-27 21:07 | 51.04923 | 149.42029 | 36115 ft | 467 kts | 250° |
| 2026-03-27 21:07 | 51.02830 | 149.32275 | 36120 ft | 466 kts | 250° |
| 2026-03-27 21:08 | 51.00729 | 149.22523 | 36117 ft | 466 kts | 250° |
| 2026-03-27 21:08 | 50.98616 | 149.12767 | 36122 ft | 467 kts | 249° |
| 2026-03-27 21:09 | 50.96497 | 149.03027 | 36127 ft | 467 kts | 249° |
| 2026-03-27 21:09 | 50.94369 | 148.93291 | 36124 ft | 467 kts | 249° |
| 2026-03-27 21:10 | 50.92230 | 148.83548 | 36130 ft | 467 kts | 249° |
| 2026-03-27 21:10 | 50.90085 | 148.73829 | 36124 ft | 467 kts | 249° |
| 2026-03-27 21:11 | 50.87942 | 148.64158 | 36126 ft | 467 kts | 249° |
| 2026-03-27 21:11 | 50.85780 | 148.54451 | 36127 ft | 467 kts | 249° |
| 2026-03-27 21:12 | 50.83613 | 148.44765 | 36133 ft | 467 kts | 249° |
| 2026-03-27 21:12 | 50.81435 | 148.35075 | 36121 ft | 467 kts | 249° |
| 2026-03-27 21:13 | 50.79251 | 148.25407 | 36130 ft | 467 kts | 249° |
| 2026-03-27 21:13 | 50.77074 | 148.15809 | 36126 ft | 467 kts | 249° |
| 2026-03-27 21:14 | 50.74877 | 148.06168 | 36131 ft | 466 kts | 249° |
| 2026-03-27 21:14 | 50.73032 | 147.98105 | 36132 ft | 466 kts | 249° |
| 2026-03-27 21:15 | 50.70819 | 147.88475 | 36130 ft | 466 kts | 248° |
| 2026-03-27 21:15 | 50.68616 | 147.78930 | 36128 ft | 466 kts | 248° |
| 2026-03-27 21:16 | 50.66390 | 147.69330 | 36126 ft | 466 kts | 248° |
| 2026-03-27 21:16 | 50.64155 | 147.59732 | 36124 ft | 466 kts | 248° |
| 2026-03-27 21:17 | 50.61916 | 147.50163 | 36114 ft | 466 kts | 248° |
| 2026-03-27 21:17 | 50.59670 | 147.40606 | 36112 ft | 466 kts | 248° |
| 2026-03-27 21:18 | 50.57414 | 147.31048 | 36114 ft | 466 kts | 248° |
| 2026-03-27 21:18 | 50.55152 | 147.21506 | 36115 ft | 465 kts | 248° |
| 2026-03-27 21:19 | 50.52893 | 147.12021 | 36118 ft | 465 kts | 248° |
| 2026-03-27 21:19 | 50.50617 | 147.02506 | 36132 ft | 465 kts | 248° |
| 2026-03-27 21:20 | 50.48331 | 146.92986 | 36113 ft | 465 kts | 248° |
| 2026-03-27 21:20 | 50.46040 | 146.83492 | 36114 ft | 465 kts | 248° |
| 2026-03-27 21:21 | 50.43741 | 146.74002 | 36110 ft | 465 kts | 248° |
| 2026-03-27 21:21 | 50.41435 | 146.64527 | 36114 ft | 465 kts | 248° |
| 2026-03-27 21:22 | 50.39122 | 146.55060 | 36113 ft | 465 kts | 248° |
| 2026-03-27 21:22 | 50.36800 | 146.45600 | 36108 ft | 465 kts | 248° |
| 2026-03-27 21:23 | 50.34488 | 146.36219 | 36110 ft | 465 kts | 248° |
| 2026-03-27 21:23 | 50.32152 | 146.26782 | 36104 ft | 465 kts | 247° |
| 2026-03-27 21:24 | 50.29811 | 146.17362 | 36103 ft | 465 kts | 247° |
| 2026-03-27 21:24 | 50.27459 | 146.07931 | 36104 ft | 465 kts | 247° |
| 2026-03-27 21:25 | 50.25105 | 145.98541 | 36102 ft | 465 kts | 247° |
| 2026-03-27 21:25 | 50.22741 | 145.89144 | 36099 ft | 464 kts | 247° |
| 2026-03-27 21:26 | 50.20369 | 145.79749 | 36098 ft | 464 kts | 247° |
| 2026-03-27 21:26 | 50.17996 | 145.70383 | 36096 ft | 464 kts | 247° |
| 2026-03-27 21:27 | 50.15613 | 145.61019 | 36094 ft | 464 kts | 247° |
| 2026-03-27 21:27 | 50.13239 | 145.51727 | 36095 ft | 464 kts | 247° |
| 2026-03-27 21:28 | 50.10828 | 145.42329 | 36096 ft | 464 kts | 247° |
| 2026-03-27 21:28 | 50.08441 | 145.33062 | 36095 ft | 464 kts | 247° |
| 2026-03-27 21:29 | 50.06031 | 145.23747 | 36088 ft | 464 kts | 247° |
| 2026-03-27 21:29 | 50.03612 | 145.14431 | 36088 ft | 464 kts | 247° |
| 2026-03-27 21:30 | 50.01186 | 145.05129 | 36086 ft | 464 kts | 246° |
| 2026-03-27 21:30 | 49.98753 | 144.95840 | 36081 ft | 464 kts | 246° |
| 2026-03-27 21:31 | 49.96316 | 144.86570 | 36080 ft | 463 kts | 246° |
| 2026-03-27 21:31 | 49.93871 | 144.77308 | 36074 ft | 463 kts | 246° |
| 2026-03-27 21:32 | 49.91425 | 144.68075 | 36076 ft | 463 kts | 246° |
| 2026-03-27 21:32 | 49.88985 | 144.58906 | 36071 ft | 463 kts | 246° |
| 2026-03-27 21:33 | 49.86519 | 144.49672 | 36070 ft | 464 kts | 246° |
| 2026-03-27 21:33 | 49.84044 | 144.40438 | 36066 ft | 464 kts | 246° |
| 2026-03-27 21:34 | 49.81554 | 144.31213 | 36067 ft | 464 kts | 246° |
| 2026-03-27 21:34 | 49.79051 | 144.21988 | 36066 ft | 465 kts | 246° |
| 2026-03-27 21:35 | 49.76542 | 144.12771 | 36073 ft | 465 kts | 246° |
| 2026-03-27 21:35 | 49.74023 | 144.03551 | 36072 ft | 465 kts | 246° |
| 2026-03-27 21:36 | 49.71498 | 143.94341 | 36077 ft | 465 kts | 246° |
| 2026-03-27 21:36 | 49.68967 | 143.85143 | 36081 ft | 465 kts | 246° |
| 2026-03-27 21:37 | 49.66421 | 143.75929 | 36087 ft | 465 kts | 246° |
| 2026-03-27 21:37 | 49.63873 | 143.66744 | 36087 ft | 465 kts | 246° |
| 2026-03-27 21:38 | 49.61317 | 143.57570 | 36089 ft | 465 kts | 245° |
| 2026-03-27 21:38 | 49.58759 | 143.48421 | 36094 ft | 465 kts | 245° |
| 2026-03-27 21:39 | 49.56208 | 143.39328 | 36092 ft | 465 kts | 245° |
| 2026-03-27 21:39 | 49.53634 | 143.30195 | 36094 ft | 465 kts | 245° |
| 2026-03-27 21:40 | 49.51051 | 143.21060 | 36092 ft | 465 kts | 245° |
| 2026-03-27 21:40 | 49.48462 | 143.11941 | 36094 ft | 465 kts | 245° |
| 2026-03-27 21:41 | 49.45864 | 143.02828 | 36093 ft | 465 kts | 245° |
| 2026-03-27 21:41 | 49.43257 | 142.93716 | 36090 ft | 465 kts | 245° |
| 2026-03-27 21:42 | 49.40662 | 142.84679 | 36087 ft | 465 kts | 245° |
| 2026-03-27 21:42 | 49.38042 | 142.75588 | 36083 ft | 466 kts | 245° |
| 2026-03-27 21:43 | 49.35415 | 142.66509 | 36079 ft | 466 kts | 245° |
| 2026-03-27 21:43 | 49.32779 | 142.57431 | 36071 ft | 466 kts | 245° |
| 2026-03-27 21:44 | 49.30131 | 142.48348 | 36061 ft | 466 kts | 245° |
| 2026-03-27 21:44 | 49.27479 | 142.39286 | 36052 ft | 466 kts | 245° |
| 2026-03-27 21:45 | 49.24821 | 142.30236 | 36049 ft | 466 kts | 245° |
| 2026-03-27 21:45 | 49.22157 | 142.21195 | 36044 ft | 466 kts | 245° |
| 2026-03-27 21:46 | 49.19487 | 142.12166 | 36041 ft | 466 kts | 245° |
| 2026-03-27 21:46 | 49.16829 | 142.03213 | 36032 ft | 465 kts | 245° |
| 2026-03-27 21:47 | 49.14152 | 141.94216 | 36032 ft | 465 kts | 245° |
| 2026-03-27 21:47 | 49.11469 | 141.85222 | 36033 ft | 465 kts | 245° |
| 2026-03-27 21:48 | 49.08780 | 141.76240 | 36029 ft | 465 kts | 244° |
| 2026-03-27 21:48 | 49.06074 | 141.67234 | 36031 ft | 466 kts | 244° |
| 2026-03-27 21:49 | 49.03386 | 141.58319 | 36028 ft | 466 kts | 244° |
| 2026-03-27 21:49 | 49.00670 | 141.49344 | 36032 ft | 466 kts | 244° |
| 2026-03-27 21:50 | 48.97948 | 141.40384 | 36026 ft | 466 kts | 244° |
| 2026-03-27 21:50 | 48.95221 | 141.31427 | 36030 ft | 467 kts | 244° |
| 2026-03-27 21:51 | 48.92485 | 141.22469 | 36023 ft | 467 kts | 244° |
| 2026-03-27 21:51 | 48.89742 | 141.13522 | 36024 ft | 467 kts | 244° |
| 2026-03-27 21:52 | 48.86991 | 141.04580 | 36019 ft | 467 kts | 244° |
| 2026-03-27 21:52 | 48.84234 | 140.95652 | 36020 ft | 467 kts | 244° |
| 2026-03-27 21:53 | 48.81469 | 140.86730 | 36019 ft | 467 kts | 244° |
| 2026-03-27 21:53 | 48.78695 | 140.77809 | 36015 ft | 467 kts | 244° |
| 2026-03-27 21:54 | 48.75912 | 140.68894 | 36017 ft | 467 kts | 244° |
| 2026-03-27 21:54 | 48.73126 | 140.59998 | 36016 ft | 467 kts | 244° |
| 2026-03-27 21:55 | 48.70350 | 140.51165 | 36017 ft | 468 kts | 244° |
| 2026-03-27 21:55 | 48.67546 | 140.42278 | 36016 ft | 468 kts | 244° |
| 2026-03-27 21:56 | 48.64738 | 140.33405 | 36014 ft | 468 kts | 244° |
| 2026-03-27 21:56 | 48.61921 | 140.24530 | 36015 ft | 468 kts | 244° |
| 2026-03-27 21:57 | 48.58863 | 140.15857 | 36008 ft | 468 kts | 236° |
| 2026-03-27 21:57 | 48.55108 | 140.07828 | 36013 ft | 468 kts | 234° |
| 2026-03-27 21:58 | 48.51357 | 139.99877 | 36008 ft | 468 kts | 235° |
| 2026-03-27 21:58 | 48.47587 | 139.91791 | 36014 ft | 468 kts | 235° |
| 2026-03-27 21:59 | 48.43855 | 139.83805 | 36010 ft | 469 kts | 235° |
| 2026-03-27 21:59 | 48.40088 | 139.75793 | 36014 ft | 469 kts | 235° |
| 2026-03-27 22:00 | 48.36924 | 139.69085 | 36011 ft | 469 kts | 234° |
| 2026-03-27 22:00 | 48.32533 | 139.59793 | 36011 ft | 469 kts | 235° |
| 2026-03-27 22:01 | 48.28750 | 139.51810 | 36011 ft | 469 kts | 234° |
| 2026-03-27 22:01 | 48.25602 | 139.45186 | 36010 ft | 468 kts | 234° |
| 2026-03-27 22:02 | 48.21176 | 139.35900 | 36008 ft | 468 kts | 234° |
| 2026-03-27 22:02 | 48.18023 | 139.29304 | 36002 ft | 468 kts | 234° |
| 2026-03-27 22:03 | 48.14226 | 139.21379 | 36010 ft | 468 kts | 234° |
| 2026-03-27 22:03 | 48.10426 | 139.13471 | 36011 ft | 468 kts | 234° |
| 2026-03-27 22:04 | 48.06620 | 139.05572 | 36004 ft | 468 kts | 234° |
| 2026-03-27 22:04 | 48.02801 | 138.97686 | 36003 ft | 468 kts | 234° |
| 2026-03-27 22:05 | 47.98978 | 138.89815 | 36001 ft | 468 kts | 234° |
| 2026-03-27 22:05 | 47.95172 | 138.82010 | 35993 ft | 468 kts | 234° |
| 2026-03-27 22:06 | 47.91330 | 138.74172 | 36000 ft | 468 kts | 234° |
| 2026-03-27 22:06 | 47.87489 | 138.66353 | 35998 ft | 468 kts | 234° |
| 2026-03-27 22:07 | 47.83639 | 138.58531 | 35995 ft | 468 kts | 234° |
| 2026-03-27 22:07 | 47.79792 | 138.50735 | 36000 ft | 467 kts | 234° |
| 2026-03-27 22:08 | 47.74030 | 138.39104 | 36002 ft | 467 kts | 234° |
| 2026-03-27 22:08 | 47.70174 | 138.31341 | 36000 ft | 467 kts | 234° |
| 2026-03-27 22:09 | 47.66315 | 138.23589 | 36000 ft | 467 kts | 234° |
| 2026-03-27 22:09 | 47.62449 | 138.15845 | 36000 ft | 467 kts | 234° |
| 2026-03-27 22:10 | 47.58578 | 138.08113 | 36001 ft | 467 kts | 234° |
| 2026-03-27 22:10 | 47.54700 | 138.00390 | 35995 ft | 467 kts | 234° |
| 2026-03-27 22:11 | 47.50820 | 137.92681 | 35988 ft | 467 kts | 234° |
| 2026-03-27 22:11 | 47.46944 | 137.85004 | 35992 ft | 466 kts | 234° |
| 2026-03-27 22:12 | 47.43080 | 137.77370 | 35988 ft | 466 kts | 234° |
| 2026-03-27 22:12 | 47.39168 | 137.69660 | 35990 ft | 466 kts | 234° |
| 2026-03-27 22:13 | 47.35272 | 137.62013 | 35982 ft | 466 kts | 234° |
| 2026-03-27 22:13 | 47.31369 | 137.54398 | 35991 ft | 466 kts | 233° |
| 2026-03-27 22:14 | 47.27484 | 137.46839 | 35983 ft | 466 kts | 233° |
| 2026-03-27 22:14 | 47.23569 | 137.39236 | 35982 ft | 466 kts | 233° |
| 2026-03-27 22:15 | 47.19651 | 137.31646 | 35992 ft | 465 kts | 233° |
| 2026-03-27 22:15 | 47.15728 | 137.24068 | 35972 ft | 465 kts | 233° |
| 2026-03-27 22:16 | 47.11810 | 137.16519 | 35989 ft | 464 kts | 233° |
| 2026-03-27 22:16 | 47.07888 | 137.08983 | 35984 ft | 464 kts | 233° |
| 2026-03-27 22:17 | 47.03962 | 137.01457 | 35991 ft | 464 kts | 233° |
| 2026-03-27 22:17 | 47.00042 | 136.93965 | 35986 ft | 463 kts | 233° |
| 2026-03-27 22:18 | 46.96139 | 136.86537 | 35985 ft | 463 kts | 233° |
| 2026-03-27 22:18 | 46.92209 | 136.79076 | 35981 ft | 463 kts | 233° |
| 2026-03-27 22:19 | 46.88277 | 136.71627 | 35986 ft | 463 kts | 233° |
| 2026-03-27 22:19 | 46.84337 | 136.64180 | 35978 ft | 463 kts | 233° |
| 2026-03-27 22:20 | 46.80395 | 136.56750 | 35984 ft | 463 kts | 233° |
| 2026-03-27 22:20 | 46.76452 | 136.49336 | 35980 ft | 463 kts | 233° |
| 2026-03-27 22:21 | 46.72499 | 136.41924 | 35982 ft | 463 kts | 233° |
| 2026-03-27 22:21 | 46.68555 | 136.34551 | 35991 ft | 462 kts | 233° |
| 2026-03-27 22:22 | 46.64583 | 136.27142 | 35989 ft | 463 kts | 233° |
| 2026-03-27 22:22 | 46.60622 | 136.19767 | 35983 ft | 462 kts | 233° |
| 2026-03-27 22:23 | 46.56654 | 136.12399 | 35990 ft | 463 kts | 233° |
| 2026-03-27 22:23 | 46.52684 | 136.05045 | 35986 ft | 463 kts | 233° |
| 2026-03-27 22:24 | 46.48709 | 135.97705 | 35997 ft | 462 kts | 233° |
| 2026-03-27 22:24 | 46.44732 | 135.90376 | 35994 ft | 462 kts | 233° |
| 2026-03-27 22:25 | 46.40759 | 135.83075 | 35995 ft | 461 kts | 233° |
| 2026-03-27 22:25 | 46.36779 | 135.75776 | 35993 ft | 461 kts | 233° |
| 2026-03-27 22:26 | 46.32856 | 135.68428 | 35994 ft | 461 kts | 235° |
| 2026-03-27 22:26 | 46.29061 | 135.61026 | 36015 ft | 461 kts | 235° |
| 2026-03-27 22:27 | 46.26381 | 135.55800 | 35990 ft | 461 kts | 235° |
| 2026-03-27 22:29 | 46.25485 | 135.54060 | 35987 ft | 461 kts | 235° |
| 2026-03-27 22:30 | 46.21646 | 135.46645 | 35998 ft | 461 kts | 235° |
| 2026-03-27 22:30 | 46.17795 | 135.39247 | 36015 ft | 460 kts | 235° |
| 2026-03-27 22:31 | 46.13944 | 135.31871 | 36007 ft | 460 kts | 235° |
| 2026-03-27 22:31 | 46.10092 | 135.24510 | 35999 ft | 460 kts | 235° |
| 2026-03-27 22:32 | 46.06238 | 135.17164 | 36008 ft | 459 kts | 235° |
| 2026-03-27 22:32 | 46.02383 | 135.09833 | 36009 ft | 459 kts | 235° |
| 2026-03-27 22:33 | 45.98547 | 135.02557 | 36013 ft | 459 kts | 235° |
| 2026-03-27 22:33 | 45.94688 | 134.95255 | 36018 ft | 459 kts | 235° |
| 2026-03-27 22:34 | 45.90506 | 134.88294 | 36010 ft | 462 kts | 225° |
| 2026-03-27 22:34 | 45.85388 | 134.82655 | 36006 ft | 466 kts | 214° |
| 2026-03-27 22:35 | 45.79732 | 134.78067 | 36012 ft | 467 kts | 212° |
| 2026-03-27 22:35 | 45.74041 | 134.73571 | 36011 ft | 467 kts | 212° |
| 2026-03-27 22:36 | 45.68358 | 134.69038 | 36011 ft | 467 kts | 212° |
| 2026-03-27 22:36 | 45.62719 | 134.64511 | 36009 ft | 468 kts | 213° |
| 2026-03-27 22:37 | 45.57049 | 134.59956 | 36012 ft | 467 kts | 213° |
| 2026-03-27 22:37 | 45.51382 | 134.55419 | 36004 ft | 467 kts | 213° |
| 2026-03-27 22:38 | 45.45694 | 134.50876 | 36016 ft | 467 kts | 213° |
| 2026-03-27 22:38 | 45.40019 | 134.46354 | 36014 ft | 467 kts | 213° |
| 2026-03-27 22:39 | 45.34340 | 134.41840 | 36020 ft | 468 kts | 213° |
| 2026-03-27 22:39 | 45.28653 | 134.37330 | 36022 ft | 468 kts | 213° |
| 2026-03-27 22:40 | 45.22969 | 134.32831 | 36019 ft | 468 kts | 213° |
| 2026-03-27 22:40 | 45.17321 | 134.28373 | 36018 ft | 467 kts | 213° |
| 2026-03-27 22:41 | 45.11631 | 134.23891 | 36029 ft | 467 kts | 213° |
| 2026-03-27 22:41 | 45.05940 | 134.19420 | 36028 ft | 468 kts | 213° |
| 2026-03-27 22:42 | 45.00241 | 134.14949 | 36020 ft | 468 kts | 213° |
| 2026-03-27 22:42 | 44.95516 | 134.11253 | 35954 ft | 465 kts | 213° |
| 2026-03-27 22:43 | 44.92005 | 134.08511 | 35617 ft | 465 kts | 213° |
| 2026-03-27 22:43 | 44.89158 | 134.06286 | 34925 ft | 468 kts | 213° |
| 2026-03-27 22:43 | 44.86323 | 134.04078 | 34452 ft | 463 kts | 213° |
| 2026-03-27 22:43 | 44.83522 | 134.01900 | 33936 ft | 458 kts | 213° |
| 2026-03-27 22:44 | 44.80760 | 133.99708 | 33343 ft | 453 kts | 214° |
| 2026-03-27 22:44 | 44.78050 | 133.97499 | 32826 ft | 447 kts | 215° |
| 2026-03-27 22:44 | 44.75381 | 133.95302 | 32333 ft | 441 kts | 215° |
| 2026-03-27 22:44 | 44.72745 | 133.93128 | 31847 ft | 436 kts | 215° |
| 2026-03-27 22:45 | 44.70138 | 133.90983 | 31356 ft | 432 kts | 215° |
| 2026-03-27 22:45 | 44.67556 | 133.88867 | 30882 ft | 427 kts | 215° |
| 2026-03-27 22:45 | 44.64999 | 133.86777 | 30417 ft | 423 kts | 216° |
| 2026-03-27 22:45 | 44.62465 | 133.84711 | 29922 ft | 419 kts | 216° |
| 2026-03-27 22:46 | 44.59955 | 133.82668 | 29386 ft | 414 kts | 215° |
| 2026-03-27 22:46 | 44.59144 | 133.82008 | 29232 ft | 413 kts | 215° |
| 2026-03-27 22:46 | 44.52568 | 133.76673 | 27968 ft | 400 kts | 216° |
| 2026-03-27 22:47 | 44.50175 | 133.74735 | 27519 ft | 396 kts | 216° |
| 2026-03-27 22:47 | 44.47794 | 133.72807 | 27049 ft | 393 kts | 216° |
| 2026-03-27 22:47 | 44.45435 | 133.70900 | 26600 ft | 390 kts | 217° |
| 2026-03-27 22:47 | 44.43118 | 133.69027 | 26148 ft | 387 kts | 217° |
| 2026-03-27 22:48 | 44.40790 | 133.67146 | 25695 ft | 385 kts | 217° |
| 2026-03-27 22:48 | 44.38471 | 133.65276 | 25252 ft | 382 kts | 217° |
| 2026-03-27 22:48 | 44.36167 | 133.63420 | 24803 ft | 380 kts | 217° |
| 2026-03-27 22:48 | 44.33904 | 133.61598 | 24386 ft | 378 kts | 217° |
| 2026-03-27 22:49 | 44.31629 | 133.59767 | 23953 ft | 376 kts | 217° |
| 2026-03-27 22:49 | 44.29352 | 133.57937 | 23497 ft | 375 kts | 217° |
| 2026-03-27 22:49 | 44.27087 | 133.56118 | 22982 ft | 373 kts | 217° |
| 2026-03-27 22:49 | 44.24869 | 133.54339 | 22558 ft | 370 kts | 217° |
| 2026-03-27 22:50 | 44.22642 | 133.52556 | 22145 ft | 367 kts | 217° |
| 2026-03-27 22:50 | 44.20435 | 133.50789 | 21699 ft | 364 kts | 217° |
| 2026-03-27 22:50 | 44.18244 | 133.49036 | 21284 ft | 362 kts | 217° |
| 2026-03-27 22:50 | 44.16064 | 133.47292 | 20850 ft | 360 kts | 216° |
| 2026-03-27 22:51 | 44.13889 | 133.45554 | 20425 ft | 358 kts | 216° |
| 2026-03-27 22:51 | 44.11758 | 133.43852 | 20012 ft | 357 kts | 216° |
| 2026-03-27 22:51 | 44.09599 | 133.42131 | 19582 ft | 355 kts | 216° |
| 2026-03-27 22:51 | 44.07452 | 133.40421 | 19165 ft | 353 kts | 216° |
| 2026-03-27 22:52 | 44.05320 | 133.38723 | 18766 ft | 353 kts | 216° |
| 2026-03-27 22:52 | 44.03210 | 133.37044 | 18352 ft | 352 kts | 216° |
| 2026-03-27 22:52 | 44.01083 | 133.35354 | 17889 ft | 352 kts | 216° |
| 2026-03-27 22:52 | 43.98966 | 133.33672 | 17414 ft | 351 kts | 215° |
| 2026-03-27 22:53 | 43.96851 | 133.31993 | 17012 ft | 348 kts | 215° |
| 2026-03-27 22:53 | 43.94748 | 133.30326 | 16596 ft | 346 kts | 215° |
| 2026-03-27 22:53 | 43.92661 | 133.28674 | 16177 ft | 344 kts | 215° |
| 2026-03-27 22:53 | 43.90588 | 133.27018 | 15755 ft | 341 kts | 217° |
| 2026-03-27 22:54 | 43.88741 | 133.25077 | 15345 ft | 334 kts | 227° |
| 2026-03-27 22:54 | 43.87154 | 133.22757 | 14930 ft | 330 kts | 235° |
| 2026-03-27 22:54 | 43.85824 | 133.20191 | 14513 ft | 326 kts | 240° |
| 2026-03-27 22:54 | 43.84553 | 133.17579 | 14109 ft | 325 kts | 240° |
| 2026-03-27 22:55 | 43.83295 | 133.14972 | 13673 ft | 325 kts | 240° |
| 2026-03-27 22:55 | 43.82033 | 133.12364 | 13226 ft | 325 kts | 240° |
| 2026-03-27 22:55 | 43.80767 | 133.09762 | 12789 ft | 324 kts | 239° |
| 2026-03-27 22:55 | 43.79519 | 133.07209 | 12388 ft | 323 kts | 239° |
| 2026-03-27 22:56 | 43.78257 | 133.04632 | 11975 ft | 322 kts | 239° |
| 2026-03-27 22:56 | 43.76998 | 133.02069 | 11564 ft | 321 kts | 239° |
| 2026-03-27 22:56 | 43.75739 | 132.99509 | 11148 ft | 320 kts | 239° |
| 2026-03-27 22:56 | 43.74499 | 132.96990 | 10757 ft | 320 kts | 238° |
| 2026-03-27 22:57 | 43.73248 | 132.94455 | 10501 ft | 315 kts | 238° |
| 2026-03-27 22:57 | 43.72042 | 132.92019 | 10325 ft | 293 kts | 238° |
| 2026-03-27 22:57 | 43.70946 | 132.89805 | 10201 ft | 268 kts | 238° |
| 2026-03-27 22:57 | 43.69911 | 132.87709 | 10083 ft | 259 kts | 238° |
| 2026-03-27 22:58 | 43.68919 | 132.85703 | 9994 ft | 251 kts | 238° |
| 2026-03-27 22:58 | 43.67935 | 132.83711 | 9695 ft | 250 kts | 238° |
| 2026-03-27 22:58 | 43.66956 | 132.81735 | 9457 ft | 249 kts | 238° |
| 2026-03-27 22:58 | 43.65982 | 132.79763 | 9137 ft | 248 kts | 239° |
| 2026-03-27 22:59 | 43.65095 | 132.77720 | 8838 ft | 247 kts | 243° |
| 2026-03-27 22:59 | 43.64257 | 132.75643 | 8538 ft | 247 kts | 243° |
| 2026-03-27 22:59 | 43.63435 | 132.73594 | 8245 ft | 247 kts | 243° |
| 2026-03-27 22:59 | 43.62593 | 132.71509 | 7948 ft | 247 kts | 243° |
| 2026-03-27 23:00 | 43.62040 | 132.70148 | 7765 ft | 246 kts | 242° |
| 2026-03-27 23:00 | 43.61199 | 132.68081 | 7457 ft | 247 kts | 242° |
| 2026-03-27 23:00 | 43.60352 | 132.66007 | 7179 ft | 248 kts | 242° |
| 2026-03-27 23:00 | 43.59500 | 132.63921 | 6871 ft | 248 kts | 242° |
| 2026-03-27 23:01 | 43.58658 | 132.61865 | 6581 ft | 249 kts | 242° |
| 2026-03-27 23:01 | 43.57800 | 132.59778 | 6274 ft | 250 kts | 241° |
| 2026-03-27 23:01 | 43.56938 | 132.57682 | 5940 ft | 251 kts | 242° |
| 2026-03-27 23:01 | 43.56075 | 132.55586 | 5644 ft | 251 kts | 242° |
| 2026-03-27 23:02 | 43.55206 | 132.53480 | 5346 ft | 252 kts | 241° |
| 2026-03-27 23:02 | 43.54345 | 132.51398 | 5042 ft | 253 kts | 242° |
| 2026-03-27 23:02 | 43.53473 | 132.49289 | 4739 ft | 253 kts | 242° |
| 2026-03-27 23:02 | 43.52615 | 132.47164 | 4429 ft | 253 kts | 243° |
| 2026-03-27 23:03 | 43.51770 | 132.45040 | 4126 ft | 252 kts | 243° |
| 2026-03-27 23:03 | 43.50924 | 132.42924 | 3903 ft | 248 kts | 243° |
| 2026-03-27 23:03 | 43.50115 | 132.40898 | 3790 ft | 240 kts | 243° |
| 2026-03-27 23:03 | 43.49322 | 132.38918 | 3624 ft | 233 kts | 243° |
| 2026-03-27 23:04 | 43.48554 | 132.37006 | 3549 ft | 220 kts | 243° |
| 2026-03-27 23:04 | 43.47835 | 132.35212 | 3461 ft | 209 kts | 244° |
| 2026-03-27 23:04 | 43.47148 | 132.33499 | 3273 ft | 202 kts | 244° |
| 2026-03-27 23:04 | 43.46465 | 132.31821 | 2990 ft | 200 kts | 244° |
| 2026-03-27 23:05 | 43.45774 | 132.30159 | 2562 ft | 200 kts | 243° |
| 2026-03-27 23:05 | 43.45067 | 132.28513 | 2110 ft | 195 kts | 242° |
| 2026-03-27 23:05 | 43.44419 | 132.26961 | 1767 ft | 185 kts | 244° |
| 2026-03-27 23:05 | 43.43820 | 132.25459 | 1457 ft | 171 kts | 243° |
| 2026-03-27 23:06 | 43.43258 | 132.24074 | 1187 ft | 156 kts | 243° |
| 2026-03-27 23:06 | 43.42765 | 132.22822 | 943 ft | 144 kts | 242° |
| 2026-03-27 23:06 | 43.42300 | 132.21629 | 843 ft | 142 kts | 242° |
| 2026-03-27 23:06 | 43.41815 | 132.20437 | 859 ft | 148 kts | 241° |
| 2026-03-27 23:07 | 43.41299 | 132.19169 | 555 ft | 152 kts | 240° |
| 2026-03-27 23:07 | 43.40792 | 132.17926 | 207 ft | 144 kts | 240° |
| 2026-03-27 23:07 | 43.40336 | 132.16839 | 257 ft | 128 kts | 240° |
| 2026-03-27 23:07 | 43.39885 | 132.15727 | 493 ft | 136 kts | 242° |
| 2026-03-27 23:08 | 43.39449 | 132.14583 | 873 ft | 140 kts | 244° |
| 2026-03-27 23:08 | 43.38990 | 132.13320 | 1284 ft | 155 kts | 245° |
| 2026-03-27 23:08 | 43.38460 | 132.11931 | 1743 ft | 173 kts | 245° |
| 2026-03-27 23:08 | 43.37850 | 132.10397 | 2239 ft | 189 kts | 245° |
| 2026-03-27 23:09 | 43.37198 | 132.08772 | 2948 ft | 196 kts | 245° |
| 2026-03-27 23:09 | 43.36532 | 132.07117 | 3737 ft | 199 kts | 244° |
| 2026-03-27 23:09 | 43.35857 | 132.05445 | 4547 ft | 204 kts | 242° |
| 2026-03-27 23:09 | 43.35140 | 132.03669 | 4953 ft | 219 kts | 242° |
| 2026-03-27 23:10 | 43.34415 | 132.01879 | 4921 ft | 215 kts | 242° |
| 2026-03-27 23:10 | 43.33681 | 132.00069 | 4930 ft | 217 kts | 242° |
| 2026-03-27 23:10 | 43.32958 | 131.98225 | 4934 ft | 219 kts | 248° |
| 2026-03-27 23:10 | 43.32801 | 131.96176 | 4922 ft | 219 kts | 283° |
| 2026-03-27 23:11 | 43.33515 | 131.94348 | 4948 ft | 220 kts | 313° |
| 2026-03-27 23:11 | 43.34797 | 131.93211 | 4924 ft | 224 kts | 342° |
| 2026-03-27 23:11 | 43.36347 | 131.93164 | 4922 ft | 229 kts | 16° |
| 2026-03-27 23:11 | 43.37721 | 131.94331 | 4717 ft | 239 kts | 43° |
| 2026-03-27 23:12 | 43.38853 | 131.96036 | 4382 ft | 251 kts | 48° |
| 2026-03-27 23:12 | 43.39999 | 131.97915 | 4353 ft | 261 kts | 49° |
| 2026-03-27 23:12 | 43.41164 | 131.99839 | 4279 ft | 262 kts | 49° |
| 2026-03-27 23:12 | 43.42333 | 132.01759 | 4234 ft | 261 kts | 48° |
| 2026-03-27 23:13 | 43.43500 | 132.03667 | 4234 ft | 260 kts | 48° |
| 2026-03-27 23:13 | 43.44670 | 132.05570 | 4213 ft | 260 kts | 48° |
| 2026-03-27 23:13 | 43.45841 | 132.07469 | 4238 ft | 259 kts | 48° |
| 2026-03-27 23:13 | 43.47012 | 132.09362 | 4226 ft | 259 kts | 48° |
| 2026-03-27 23:14 | 43.48173 | 132.11234 | 4234 ft | 259 kts | 48° |
| 2026-03-27 23:14 | 43.49347 | 132.13127 | 4225 ft | 260 kts | 48° |
| 2026-03-27 23:14 | 43.50519 | 132.15021 | 4223 ft | 260 kts | 48° |
| 2026-03-27 23:14 | 43.51697 | 132.16925 | 4234 ft | 260 kts | 48° |
| 2026-03-27 23:15 | 43.52808 | 132.18904 | 4213 ft | 262 kts | 56° |
| 2026-03-27 23:15 | 43.53697 | 132.21065 | 4241 ft | 263 kts | 60° |
| 2026-03-27 23:15 | 43.54576 | 132.23281 | 4216 ft | 263 kts | 59° |
| 2026-03-27 23:15 | 43.55442 | 132.25453 | 4202 ft | 252 kts | 59° |
| 2026-03-27 23:16 | 43.56267 | 132.27516 | 4197 ft | 239 kts | 59° |
| 2026-03-27 23:16 | 43.57003 | 132.29521 | 4198 ft | 236 kts | 71° |
| 2026-03-27 23:16 | 43.57099 | 132.31736 | 4203 ft | 230 kts | 102° |
| 2026-03-27 23:16 | 43.56663 | 132.33800 | 4214 ft | 219 kts | 105° |
| 2026-03-27 23:17 | 43.56243 | 132.35787 | 4202 ft | 217 kts | 105° |
| 2026-03-27 23:17 | 43.55826 | 132.37772 | 4190 ft | 215 kts | 105° |
| 2026-03-27 23:17 | 43.55408 | 132.39751 | 4187 ft | 215 kts | 105° |
| 2026-03-27 23:17 | 43.54975 | 132.41733 | 4177 ft | 214 kts | 111° |
| 2026-03-27 23:18 | 43.54085 | 132.43324 | 4160 ft | 216 kts | 149° |
| 2026-03-27 23:18 | 43.52653 | 132.43885 | 4078 ft | 218 kts | 186° |
| 2026-03-27 23:18 | 43.51255 | 132.43197 | 3925 ft | 213 kts | 223° |
| 2026-03-27 23:18 | 43.50390 | 132.41617 | 3849 ft | 204 kts | 244° |
| 2026-03-27 23:19 | 43.49005 | 132.38135 | 3548 ft | 210 kts | 244° |
| 2026-03-27 23:19 | 43.48310 | 132.36395 | 3312 ft | 205 kts | 244° |
| 2026-03-27 23:19 | 43.47627 | 132.34691 | 2988 ft | 202 kts | 244° |
| 2026-03-27 23:20 | 43.46960 | 132.33030 | 2664 ft | 192 kts | 244° |
| 2026-03-27 23:20 | 43.46349 | 132.31511 | 2540 ft | 171 kts | 245° |
| 2026-03-27 23:20 | 43.45785 | 132.30105 | 2346 ft | 165 kts | 245° |
| 2026-03-27 23:20 | 43.45257 | 132.28789 | 2137 ft | 153 kts | 245° |
| 2026-03-27 23:21 | 43.44750 | 132.27524 | 1929 ft | 148 kts | 245° |
| 2026-03-27 23:21 | 43.44252 | 132.26283 | 1748 ft | 149 kts | 244° |
| 2026-03-27 23:21 | 43.43750 | 132.25035 | 1527 ft | 149 kts | 244° |
| 2026-03-27 23:21 | 43.43249 | 132.23788 | 1286 ft | 148 kts | 243° |
| 2026-03-27 23:22 | 43.42753 | 132.22556 | 1068 ft | 146 kts | 242° |
| 2026-03-27 23:22 | 43.42267 | 132.21348 | 840 ft | 145 kts | 242° |
| 2026-03-27 23:22 | 43.41779 | 132.20136 | 649 ft | 145 kts | 241° |
| 2026-03-27 23:22 | 43.41293 | 132.18928 | 426 ft | 144 kts | 241° |
| 2026-03-27 23:23 | 43.40807 | 132.17719 | 243 ft | 143 kts | 241° |
| 2026-03-27 23:23 | 43.40322 | 132.16516 | 87 ft | 142 kts | 241° |
| 2026-03-27 23:23 | 43.39893 | 132.15455 | 69 ft | 107 kts | 240° |
| 2026-03-27 23:23 | 43.39652 | 132.14868 | 63 ft | 45 kts | 242° |
| 2026-03-27 23:24 | 43.39503 | 132.14510 | 66 ft | 31 kts | 239° |
| 2026-03-27 23:24 | 43.39414 | 132.14275 | 70 ft | 25 kts | 238° |
| 2026-03-27 23:24 | 43.39343 | 132.14192 | 68 ft | 9 kts | 170° |
| 2026-03-27 23:24 | 43.39282 | 132.14226 | 66 ft | 10 kts | 152° |
| 2026-03-27 23:25 | 43.39225 | 132.14268 | 69 ft | 7 kts | 150° |
| 2026-03-27 23:25 | 43.39209 | 132.14329 | 66 ft | 7 kts | 86° |
| 2026-03-27 23:25 | 43.39230 | 132.14418 | 63 ft | 12 kts | 65° |
| 2026-03-27 23:25 | 43.39273 | 132.14525 | 62 ft | 13 kts | 62° |
| 2026-03-27 23:26 | 43.39316 | 132.14637 | 62 ft | 13 kts | 61° |
| 2026-03-27 23:26 | 43.39362 | 132.14751 | 62 ft | 14 kts | 60° |
| 2026-03-27 23:26 | 43.39409 | 132.14867 | 62 ft | 14 kts | 61° |
| 2026-03-27 23:26 | 43.39458 | 132.14987 | 65 ft | 15 kts | 61° |
| 2026-03-27 23:27 | 43.39490 | 132.15067 | 65 ft | 15 kts | 61° |
| 2026-03-27 23:27 | 43.39650 | 132.15465 | 66 ft | 15 kts | 62° |
| 2026-03-27 23:28 | 43.39699 | 132.15587 | 62 ft | 14 kts | 60° |
| 2026-03-27 23:28 | 43.39749 | 132.15707 | 62 ft | 14 kts | 60° |
| 2026-03-27 23:28 | 43.39794 | 132.15819 | 66 ft | 12 kts | 60° |
| 2026-03-27 23:28 | 43.39836 | 132.15921 | 62 ft | 12 kts | 61° |
| 2026-03-27 23:29 | 43.39878 | 132.16023 | 62 ft | 11 kts | 60° |
| 2026-03-27 23:29 | 43.39867 | 132.16118 | 66 ft | 10 kts | 136° |
| 2026-03-27 23:29 | 43.39819 | 132.16165 | 62 ft | 8 kts | 147° |
| 2026-03-27 23:29 | 43.39773 | 132.16204 | 65 ft | 8 kts | 149° |
| 2026-03-27 23:30 | 43.39747 | 132.16267 | 68 ft | 8 kts | 94° |
| 2026-03-27 23:30 | 43.39769 | 132.16343 | 66 ft | 9 kts | 63° |
| 2026-03-27 23:30 | 43.39788 | 132.16408 | 62 ft | 7 kts | 85° |
| 2026-03-27 23:30 | 43.39759 | 132.16461 | 62 ft | 8 kts | 151° |
| 2026-03-27 23:31 | 43.39743 | 132.16473 | 64 ft | 0 kts | 151° |